sensor_id;sensor_type;location;lat;lon;timestamp;temperature;humidity
27384;DHT22;14851;51.166;4.760;2024-03-08T00:00:39;4.90;99.90
27384;DHT22;14851;51.166;4.760;2024-03-08T00:03:08;4.90;99.90
27384;DHT22;14851;51.166;4.760;2024-03-08T00:05:36;4.90;99.90
27384;DHT22;14851;51.166;4.760;2024-03-08T00:08:08;5.00;99.90
27384;DHT22;14851;51.166;4.760;2024-03-08T00:10:36;5.00;99.90
27384;DHT22;14851;51.166;4.760;2024-03-08T00:13:05;5.00;99.90
27384;DHT22;14851;51.166;4.760;2024-03-08T00:15:32;5.00;99.90
27384;DHT22;14851;51.166;4.760;2024-03-08T00:17:59;5.10;99.90
27384;DHT22;14851;51.166;4.760;2024-03-08T00:20:25;5.00;99.90
27384;DHT22;14851;51.166;4.760;2024-03-08T00:22:55;4.90;99.90
27384;DHT22;14851;51.166;4.760;2024-03-08T00:25:24;4.80;99.90
27384;DHT22;14851;51.166;4.760;2024-03-08T00:27:50;4.80;99.90
27384;DHT22;14851;51.166;4.760;2024-03-08T00:30:22;4.70;99.90
27384;DHT22;14851;51.166;4.760;2024-03-08T00:32:51;4.70;99.90
27384;DHT22;14851;51.166;4.760;2024-03-08T00:35:20;4.70;99.90
27384;DHT22;14851;51.166;4.760;2024-03-08T00:37:46;4.70;99.90
27384;DHT22;14851;51.166;4.760;2024-03-08T00:40:13;4.70;99.90
27384;DHT22;14851;51.166;4.760;2024-03-08T00:42:42;4.70;99.90
27384;DHT22;14851;51.166;4.760;2024-03-08T00:45:11;4.70;99.90
27384;DHT22;14851;51.166;4.760;2024-03-08T00:47:38;4.60;99.90
27384;DHT22;14851;51.166;4.760;2024-03-08T00:50:05;4.60;99.90
27384;DHT22;14851;51.166;4.760;2024-03-08T00:52:34;4.60;99.90
27384;DHT22;14851;51.166;4.760;2024-03-08T00:55:00;4.60;99.90
27384;DHT22;14851;51.166;4.760;2024-03-08T00:57:27;4.60;99.90
27384;DHT22;14851;51.166;4.760;2024-03-08T00:59:54;4.60;99.90
27384;DHT22;14851;51.166;4.760;2024-03-08T01:02:23;4.50;99.90
27384;DHT22;14851;51.166;4.760;2024-03-08T01:04:51;4.50;99.90
27384;DHT22;14851;51.166;4.760;2024-03-08T01:07:17;4.50;99.90
27384;DHT22;14851;51.166;4.760;2024-03-08T01:09:44;4.50;99.90
27384;DHT22;14851;51.166;4.760;2024-03-08T01:12:12;4.50;99.90
27384;DHT22;14851;51.166;4.760;2024-03-08T01:14:39;4.40;99.90
27384;DHT22;14851;51.166;4.760;2024-03-08T01:17:05;4.40;99.90
27384;DHT22;14851;51.166;4.760;2024-03-08T01:19:32;4.40;99.90
27384;DHT22;14851;51.166;4.760;2024-03-08T01:21:59;4.40;99.90
27384;DHT22;14851;51.166;4.760;2024-03-08T01:24:25;4.40;99.90
27384;DHT22;14851;51.166;4.760;2024-03-08T01:26:54;4.40;99.90
27384;DHT22;14851;51.166;4.760;2024-03-08T01:29:20;4.30;99.90
27384;DHT22;14851;51.166;4.760;2024-03-08T01:31:47;4.30;99.90
27384;DHT22;14851;51.166;4.760;2024-03-08T01:34:13;4.20;99.90
27384;DHT22;14851;51.166;4.760;2024-03-08T01:36:39;4.20;99.90
27384;DHT22;14851;51.166;4.760;2024-03-08T01:39:06;4.20;99.90
27384;DHT22;14851;51.166;4.760;2024-03-08T01:41:34;4.30;99.90
27384;DHT22;14851;51.166;4.760;2024-03-08T01:44:02;4.30;99.90
27384;DHT22;14851;51.166;4.760;2024-03-08T01:46:32;4.30;99.90
27384;DHT22;14851;51.166;4.760;2024-03-08T01:49:00;4.30;99.90
27384;DHT22;14851;51.166;4.760;2024-03-08T01:51:30;4.20;99.90
27384;DHT22;14851;51.166;4.760;2024-03-08T01:53:57;4.20;99.90
27384;DHT22;14851;51.166;4.760;2024-03-08T01:56:25;4.20;99.90
27384;DHT22;14851;51.166;4.760;2024-03-08T01:58:52;4.30;99.90
27384;DHT22;14851;51.166;4.760;2024-03-08T02:01:19;4.20;99.90
27384;DHT22;14851;51.166;4.760;2024-03-08T02:03:46;4.20;99.90
27384;DHT22;14851;51.166;4.760;2024-03-08T02:06:13;4.10;99.90
27384;DHT22;14851;51.166;4.760;2024-03-08T02:08:42;4.10;99.90
27384;DHT22;14851;51.166;4.760;2024-03-08T02:11:10;4.10;99.90
27384;DHT22;14851;51.166;4.760;2024-03-08T02:13:36;4.10;99.90
27384;DHT22;14851;51.166;4.760;2024-03-08T02:16:03;4.10;99.90
27384;DHT22;14851;51.166;4.760;2024-03-08T02:18:30;4.10;99.90
27384;DHT22;14851;51.166;4.760;2024-03-08T02:21:01;4.10;99.90
27384;DHT22;14851;51.166;4.760;2024-03-08T02:23:32;4.10;99.90
27384;DHT22;14851;51.166;4.760;2024-03-08T02:25:58;4.00;99.90
27384;DHT22;14851;51.166;4.760;2024-03-08T02:28:25;4.00;99.90
27384;DHT22;14851;51.166;4.760;2024-03-08T02:30:52;4.00;99.90
27384;DHT22;14851;51.166;4.760;2024-03-08T02:33:22;3.90;99.90
27384;DHT22;14851;51.166;4.760;2024-03-08T02:35:49;3.90;99.90
27384;DHT22;14851;51.166;4.760;2024-03-08T02:38:18;3.90;99.90
27384;DHT22;14851;51.166;4.760;2024-03-08T02:40:49;3.90;99.90
27384;DHT22;14851;51.166;4.760;2024-03-08T02:43:16;3.80;99.90
27384;DHT22;14851;51.166;4.760;2024-03-08T02:45:51;3.80;99.90
27384;DHT22;14851;51.166;4.760;2024-03-08T02:48:20;3.90;99.90
27384;DHT22;14851;51.166;4.760;2024-03-08T02:50:50;3.90;99.90
27384;DHT22;14851;51.166;4.760;2024-03-08T02:53:17;3.80;99.90
27384;DHT22;14851;51.166;4.760;2024-03-08T02:55:44;3.90;99.90
27384;DHT22;14851;51.166;4.760;2024-03-08T02:58:10;3.80;99.90
27384;DHT22;14851;51.166;4.760;2024-03-08T03:00:39;3.80;99.90
27384;DHT22;14851;51.166;4.760;2024-03-08T03:03:07;3.80;99.90
27384;DHT22;14851;51.166;4.760;2024-03-08T03:05:33;3.80;99.90
27384;DHT22;14851;51.166;4.760;2024-03-08T03:08:03;3.80;99.90
27384;DHT22;14851;51.166;4.760;2024-03-08T03:10:35;3.70;99.90
27384;DHT22;14851;51.166;4.760;2024-03-08T03:13:02;3.70;99.90
27384;DHT22;14851;51.166;4.760;2024-03-08T03:15:30;3.70;99.90
27384;DHT22;14851;51.166;4.760;2024-03-08T03:17:56;3.60;99.90
27384;DHT22;14851;51.166;4.760;2024-03-08T03:20:23;3.70;99.90
27384;DHT22;14851;51.166;4.760;2024-03-08T03:22:54;3.70;99.90
27384;DHT22;14851;51.166;4.760;2024-03-08T03:25:22;3.60;99.90
27384;DHT22;14851;51.166;4.760;2024-03-08T03:27:55;3.60;99.90
27384;DHT22;14851;51.166;4.760;2024-03-08T03:30:24;3.60;99.90
27384;DHT22;14851;51.166;4.760;2024-03-08T03:32:55;3.60;99.90
27384;DHT22;14851;51.166;4.760;2024-03-08T03:35:24;3.60;99.90
27384;DHT22;14851;51.166;4.760;2024-03-08T03:37:51;3.60;99.90
27384;DHT22;14851;51.166;4.760;2024-03-08T03:40:28;3.60;99.90
27384;DHT22;14851;51.166;4.760;2024-03-08T03:42:55;3.50;99.90
27384;DHT22;14851;51.166;4.760;2024-03-08T03:45:21;3.50;99.90
27384;DHT22;14851;51.166;4.760;2024-03-08T03:47:50;3.50;99.90
27384;DHT22;14851;51.166;4.760;2024-03-08T03:50:21;3.50;99.90
27384;DHT22;14851;51.166;4.760;2024-03-08T03:52:50;3.50;99.90
27384;DHT22;14851;51.166;4.760;2024-03-08T03:55:18;3.50;99.90
27384;DHT22;14851;51.166;4.760;2024-03-08T03:57:46;3.40;99.90
27384;DHT22;14851;51.166;4.760;2024-03-08T04:00:13;3.40;99.90
27384;DHT22;14851;51.166;4.760;2024-03-08T04:02:40;3.40;99.90
27384;DHT22;14851;51.166;4.760;2024-03-08T04:05:07;3.40;99.90
27384;DHT22;14851;51.166;4.760;2024-03-08T04:07:34;3.40;99.90
27384;DHT22;14851;51.166;4.760;2024-03-08T04:10:05;3.40;99.90
27384;DHT22;14851;51.166;4.760;2024-03-08T04:12:35;3.40;99.90
27384;DHT22;14851;51.166;4.760;2024-03-08T04:15:02;3.30;99.90
27384;DHT22;14851;51.166;4.760;2024-03-08T04:17:31;3.30;99.90
27384;DHT22;14851;51.166;4.760;2024-03-08T04:19:57;3.40;99.90
27384;DHT22;14851;51.166;4.760;2024-03-08T04:22:23;3.30;99.90
27384;DHT22;14851;51.166;4.760;2024-03-08T04:24:49;3.30;99.90
27384;DHT22;14851;51.166;4.760;2024-03-08T04:27:16;3.20;99.90
27384;DHT22;14851;51.166;4.760;2024-03-08T04:29:43;3.20;99.90
27384;DHT22;14851;51.166;4.760;2024-03-08T04:32:11;3.30;99.90
27384;DHT22;14851;51.166;4.760;2024-03-08T04:34:39;3.20;99.90
27384;DHT22;14851;51.166;4.760;2024-03-08T04:37:08;3.20;99.90
27384;DHT22;14851;51.166;4.760;2024-03-08T04:39:36;3.20;99.90
27384;DHT22;14851;51.166;4.760;2024-03-08T04:42:03;3.20;99.90
27384;DHT22;14851;51.166;4.760;2024-03-08T04:44:38;3.20;99.90
27384;DHT22;14851;51.166;4.760;2024-03-08T04:47:07;3.20;99.90
27384;DHT22;14851;51.166;4.760;2024-03-08T04:49:33;3.10;99.90
27384;DHT22;14851;51.166;4.760;2024-03-08T04:52:03;3.10;99.90
27384;DHT22;14851;51.166;4.760;2024-03-08T04:54:31;3.10;99.90
27384;DHT22;14851;51.166;4.760;2024-03-08T04:56:57;3.10;99.90
27384;DHT22;14851;51.166;4.760;2024-03-08T04:59:23;3.10;99.90
27384;DHT22;14851;51.166;4.760;2024-03-08T05:01:49;3.10;99.90
27384;DHT22;14851;51.166;4.760;2024-03-08T05:04:16;3.00;99.90
27384;DHT22;14851;51.166;4.760;2024-03-08T05:06:43;3.00;99.90
27384;DHT22;14851;51.166;4.760;2024-03-08T05:09:09;3.00;99.90
27384;DHT22;14851;51.166;4.760;2024-03-08T05:11:45;3.00;99.90
27384;DHT22;14851;51.166;4.760;2024-03-08T05:14:12;3.00;99.90
27384;DHT22;14851;51.166;4.760;2024-03-08T05:16:46;2.90;99.90
27384;DHT22;14851;51.166;4.760;2024-03-08T05:19:16;2.90;99.90
27384;DHT22;14851;51.166;4.760;2024-03-08T05:21:49;2.90;99.90
27384;DHT22;14851;51.166;4.760;2024-03-08T05:24:16;2.90;99.90
27384;DHT22;14851;51.166;4.760;2024-03-08T05:26:42;2.90;99.90
27384;DHT22;14851;51.166;4.760;2024-03-08T05:29:08;2.90;99.90
27384;DHT22;14851;51.166;4.760;2024-03-08T05:31:49;2.90;99.90
27384;DHT22;14851;51.166;4.760;2024-03-08T05:34:19;2.80;99.90
27384;DHT22;14851;51.166;4.760;2024-03-08T05:36:49;2.80;99.90
27384;DHT22;14851;51.166;4.760;2024-03-08T05:39:18;2.80;99.90
27384;DHT22;14851;51.166;4.760;2024-03-08T05:41:46;2.80;99.90
27384;DHT22;14851;51.166;4.760;2024-03-08T05:44:14;2.80;99.90
27384;DHT22;14851;51.166;4.760;2024-03-08T05:46:43;2.80;99.90
27384;DHT22;14851;51.166;4.760;2024-03-08T05:49:09;2.70;99.90
27384;DHT22;14851;51.166;4.760;2024-03-08T05:51:37;2.70;99.90
27384;DHT22;14851;51.166;4.760;2024-03-08T05:54:07;2.70;99.90
27384;DHT22;14851;51.166;4.760;2024-03-08T05:56:38;2.70;99.90
27384;DHT22;14851;51.166;4.760;2024-03-08T05:59:06;2.70;99.90
27384;DHT22;14851;51.166;4.760;2024-03-08T06:01:32;2.70;99.90
27384;DHT22;14851;51.166;4.760;2024-03-08T06:04:03;2.60;99.90
27384;DHT22;14851;51.166;4.760;2024-03-08T06:10:40;2.60;99.90
27384;DHT22;14851;51.166;4.760;2024-03-08T06:13:07;2.60;99.90
27384;DHT22;14851;51.166;4.760;2024-03-08T06:15:33;2.60;99.90
27384;DHT22;14851;51.166;4.760;2024-03-08T06:18:00;2.60;99.90
27384;DHT22;14851;51.166;4.760;2024-03-08T06:20:27;2.50;99.90
27384;DHT22;14851;51.166;4.760;2024-03-08T06:22:53;2.50;99.90
27384;DHT22;14851;51.166;4.760;2024-03-08T06:25:20;2.60;99.90
27384;DHT22;14851;51.166;4.760;2024-03-08T06:27:47;2.50;99.90
27384;DHT22;14851;51.166;4.760;2024-03-08T06:30:13;2.50;99.90
27384;DHT22;14851;51.166;4.760;2024-03-08T06:32:41;2.60;99.90
27384;DHT22;14851;51.166;4.760;2024-03-08T06:35:08;2.50;99.90
27384;DHT22;14851;51.166;4.760;2024-03-08T06:37:36;2.50;99.90
27384;DHT22;14851;51.166;4.760;2024-03-08T06:40:03;2.60;99.90
27384;DHT22;14851;51.166;4.760;2024-03-08T06:42:29;2.60;99.90
27384;DHT22;14851;51.166;4.760;2024-03-08T06:45:01;2.60;99.90
27384;DHT22;14851;51.166;4.760;2024-03-08T06:47:31;2.60;99.90
27384;DHT22;14851;51.166;4.760;2024-03-08T06:50:01;2.60;99.90
27384;DHT22;14851;51.166;4.760;2024-03-08T06:52:27;2.60;99.90
27384;DHT22;14851;51.166;4.760;2024-03-08T06:54:53;2.60;99.90
27384;DHT22;14851;51.166;4.760;2024-03-08T06:57:20;2.60;99.90
27384;DHT22;14851;51.166;4.760;2024-03-08T06:59:48;2.60;99.90
27384;DHT22;14851;51.166;4.760;2024-03-08T07:02:14;2.70;99.90
27384;DHT22;14851;51.166;4.760;2024-03-08T07:04:41;2.70;99.90
27384;DHT22;14851;51.166;4.760;2024-03-08T07:07:07;2.70;99.90
27384;DHT22;14851;51.166;4.760;2024-03-08T07:09:38;2.80;99.90
27384;DHT22;14851;51.166;4.760;2024-03-08T07:12:12;2.80;99.90
27384;DHT22;14851;51.166;4.760;2024-03-08T07:14:39;2.80;99.90
27384;DHT22;14851;51.166;4.760;2024-03-08T07:17:07;2.90;99.90
27384;DHT22;14851;51.166;4.760;2024-03-08T07:19:35;2.90;99.90
27384;DHT22;14851;51.166;4.760;2024-03-08T07:22:04;2.90;99.90
27384;DHT22;14851;51.166;4.760;2024-03-08T07:24:36;2.90;99.90
27384;DHT22;14851;51.166;4.760;2024-03-08T07:27:22;2.90;99.90
27384;DHT22;14851;51.166;4.760;2024-03-08T07:29:48;3.00;99.90
27384;DHT22;14851;51.166;4.760;2024-03-08T07:32:14;3.00;99.90
27384;DHT22;14851;51.166;4.760;2024-03-08T07:34:50;3.00;99.90
27384;DHT22;14851;51.166;4.760;2024-03-08T07:37:17;3.00;99.90
27384;DHT22;14851;51.166;4.760;2024-03-08T07:39:47;3.10;99.90
27384;DHT22;14851;51.166;4.760;2024-03-08T07:42:14;3.20;99.90
27384;DHT22;14851;51.166;4.760;2024-03-08T07:44:40;3.20;99.90
27384;DHT22;14851;51.166;4.760;2024-03-08T07:47:09;3.20;99.90
27384;DHT22;14851;51.166;4.760;2024-03-08T07:49:36;3.20;99.90
27384;DHT22;14851;51.166;4.760;2024-03-08T07:52:04;3.20;99.90
27384;DHT22;14851;51.166;4.760;2024-03-08T07:54:30;3.30;99.90
27384;DHT22;14851;51.166;4.760;2024-03-08T07:56:57;3.30;99.90
27384;DHT22;14851;51.166;4.760;2024-03-08T07:59:23;3.40;99.90
27384;DHT22;14851;51.166;4.760;2024-03-08T08:01:50;3.40;99.90
27384;DHT22;14851;51.166;4.760;2024-03-08T08:04:16;3.40;99.90
27384;DHT22;14851;51.166;4.760;2024-03-08T08:06:44;3.40;99.90
27384;DHT22;14851;51.166;4.760;2024-03-08T08:09:10;3.40;99.90
27384;DHT22;14851;51.166;4.760;2024-03-08T08:11:48;3.50;99.90
27384;DHT22;14851;51.166;4.760;2024-03-08T08:14:14;3.50;99.90
27384;DHT22;14851;51.166;4.760;2024-03-08T08:16:41;3.50;99.90
27384;DHT22;14851;51.166;4.760;2024-03-08T08:19:08;3.60;99.90
27384;DHT22;14851;51.166;4.760;2024-03-08T08:21:37;3.60;99.90
27384;DHT22;14851;51.166;4.760;2024-03-08T08:24:04;3.70;99.90
27384;DHT22;14851;51.166;4.760;2024-03-08T08:26:30;3.70;99.90
27384;DHT22;14851;51.166;4.760;2024-03-08T08:28:56;3.80;99.90
27384;DHT22;14851;51.166;4.760;2024-03-08T08:31:23;3.80;99.90
27384;DHT22;14851;51.166;4.760;2024-03-08T08:33:49;3.80;99.90
27384;DHT22;14851;51.166;4.760;2024-03-08T08:36:15;3.90;99.90
27384;DHT22;14851;51.166;4.760;2024-03-08T08:38:44;3.90;99.90
27384;DHT22;14851;51.166;4.760;2024-03-08T08:41:10;3.90;99.90
27384;DHT22;14851;51.166;4.760;2024-03-08T08:43:37;4.00;99.90
27384;DHT22;14851;51.166;4.760;2024-03-08T08:46:05;4.10;99.90
27384;DHT22;14851;51.166;4.760;2024-03-08T08:48:31;4.10;99.90
27384;DHT22;14851;51.166;4.760;2024-03-08T08:50:57;4.10;99.90
27384;DHT22;14851;51.166;4.760;2024-03-08T08:53:24;4.20;99.90
27384;DHT22;14851;51.166;4.760;2024-03-08T08:55:50;4.20;99.90
27384;DHT22;14851;51.166;4.760;2024-03-08T08:58:17;4.20;99.90
27384;DHT22;14851;51.166;4.760;2024-03-08T09:00:46;4.30;99.90
27384;DHT22;14851;51.166;4.760;2024-03-08T09:03:14;4.30;99.90
27384;DHT22;14851;51.166;4.760;2024-03-08T09:05:43;4.40;99.90
27384;DHT22;14851;51.166;4.760;2024-03-08T09:08:11;4.40;99.90
27384;DHT22;14851;51.166;4.760;2024-03-08T09:10:38;4.40;99.90
27384;DHT22;14851;51.166;4.760;2024-03-08T09:13:05;4.50;99.90
27384;DHT22;14851;51.166;4.760;2024-03-08T09:15:32;4.50;99.90
27384;DHT22;14851;51.166;4.760;2024-03-08T09:17:58;4.60;99.90
27384;DHT22;14851;51.166;4.760;2024-03-08T09:20:25;4.60;99.90
27384;DHT22;14851;51.166;4.760;2024-03-08T09:22:51;4.60;99.90
27384;DHT22;14851;51.166;4.760;2024-03-08T09:25:17;4.60;99.90
27384;DHT22;14851;51.166;4.760;2024-03-08T09:27:44;4.60;99.90
27384;DHT22;14851;51.166;4.760;2024-03-08T09:30:12;4.70;99.90
27384;DHT22;14851;51.166;4.760;2024-03-08T09:32:39;4.70;99.90
27384;DHT22;14851;51.166;4.760;2024-03-08T09:35:05;4.70;99.90
27384;DHT22;14851;51.166;4.760;2024-03-08T09:37:36;4.70;99.90
27384;DHT22;14851;51.166;4.760;2024-03-08T09:40:03;4.80;99.90
27384;DHT22;14851;51.166;4.760;2024-03-08T09:42:30;4.80;99.90
27384;DHT22;14851;51.166;4.760;2024-03-08T09:44:58;4.90;99.90
27384;DHT22;14851;51.166;4.760;2024-03-08T09:47:25;5.00;99.90
27384;DHT22;14851;51.166;4.760;2024-03-08T09:49:59;5.00;99.90
27384;DHT22;14851;51.166;4.760;2024-03-08T09:52:27;5.00;99.90
27384;DHT22;14851;51.166;4.760;2024-03-08T09:54:52;5.00;99.90
27384;DHT22;14851;51.166;4.760;2024-03-08T09:57:20;5.00;99.90
27384;DHT22;14851;51.166;4.760;2024-03-08T09:59:46;5.10;99.90
27384;DHT22;14851;51.166;4.760;2024-03-08T10:02:15;5.10;99.90
27384;DHT22;14851;51.166;4.760;2024-03-08T10:04:42;5.20;99.90
27384;DHT22;14851;51.166;4.760;2024-03-08T10:07:08;5.20;99.90
27384;DHT22;14851;51.166;4.760;2024-03-08T10:09:34;5.30;99.90
27384;DHT22;14851;51.166;4.760;2024-03-08T10:12:02;5.40;99.90
27384;DHT22;14851;51.166;4.760;2024-03-08T10:14:30;5.30;99.90
27384;DHT22;14851;51.166;4.760;2024-03-08T10:16:59;5.30;99.90
27384;DHT22;14851;51.166;4.760;2024-03-08T10:19:27;5.40;99.90
27384;DHT22;14851;51.166;4.760;2024-03-08T10:21:56;5.50;99.90
27384;DHT22;14851;51.166;4.760;2024-03-08T10:24:24;5.50;99.90
27384;DHT22;14851;51.166;4.760;2024-03-08T10:27:02;5.50;99.90
27384;DHT22;14851;51.166;4.760;2024-03-08T10:29:33;5.50;99.90
27384;DHT22;14851;51.166;4.760;2024-03-08T10:31:59;5.60;99.90
27384;DHT22;14851;51.166;4.760;2024-03-08T10:34:28;5.70;99.90
27384;DHT22;14851;51.166;4.760;2024-03-08T10:37:00;5.80;99.90
27384;DHT22;14851;51.166;4.760;2024-03-08T10:39:36;5.80;99.90
27384;DHT22;14851;51.166;4.760;2024-03-08T10:42:06;5.80;99.90
27384;DHT22;14851;51.166;4.760;2024-03-08T10:44:40;5.80;99.90
27384;DHT22;14851;51.166;4.760;2024-03-08T10:47:22;5.90;99.90
27384;DHT22;14851;51.166;4.760;2024-03-08T10:50:19;6.00;99.90
27384;DHT22;14851;51.166;4.760;2024-03-08T10:52:55;6.00;99.90
27384;DHT22;14851;51.166;4.760;2024-03-08T11:02:37;6.20;99.90
27384;DHT22;14851;51.166;4.760;2024-03-08T11:05:40;6.20;99.90
27384;DHT22;14851;51.166;4.760;2024-03-08T11:08:20;6.30;99.90
27384;DHT22;14851;51.166;4.760;2024-03-08T11:10:53;6.30;99.90
27384;DHT22;14851;51.166;4.760;2024-03-08T11:13:50;6.30;99.90
27384;DHT22;14851;51.166;4.760;2024-03-08T11:16:53;6.30;99.90
27384;DHT22;14851;51.166;4.760;2024-03-08T11:19:23;6.40;99.90
27384;DHT22;14851;51.166;4.760;2024-03-08T11:22:13;6.40;99.90
27384;DHT22;14851;51.166;4.760;2024-03-08T11:24:52;6.50;99.90
27384;DHT22;14851;51.166;4.760;2024-03-08T11:27:19;6.60;99.90
27384;DHT22;14851;51.166;4.760;2024-03-08T11:30:06;6.70;99.90
27384;DHT22;14851;51.166;4.760;2024-03-08T11:32:50;6.70;99.90
27384;DHT22;14851;51.166;4.760;2024-03-08T11:35:22;6.70;99.90
27384;DHT22;14851;51.166;4.760;2024-03-08T11:38:01;6.70;99.90
27384;DHT22;14851;51.166;4.760;2024-03-08T11:41:05;6.70;99.90
27384;DHT22;14851;51.166;4.760;2024-03-08T11:44:03;6.70;99.90
27384;DHT22;14851;51.166;4.760;2024-03-08T11:46:36;6.80;99.90
27384;DHT22;14851;51.166;4.760;2024-03-08T11:49:16;6.80;99.90
27384;DHT22;14851;51.166;4.760;2024-03-08T11:52:14;6.90;99.90
27384;DHT22;14851;51.166;4.760;2024-03-08T11:54:52;6.90;99.90
27384;DHT22;14851;51.166;4.760;2024-03-08T11:57:32;6.90;99.90
27384;DHT22;14851;51.166;4.760;2024-03-08T12:00:19;7.00;99.90
27384;DHT22;14851;51.166;4.760;2024-03-08T12:03:06;7.00;99.90
27384;DHT22;14851;51.166;4.760;2024-03-08T12:05:37;7.10;99.90
27384;DHT22;14851;51.166;4.760;2024-03-08T12:08:19;7.10;99.90
27384;DHT22;14851;51.166;4.760;2024-03-08T12:10:47;7.10;99.90
27384;DHT22;14851;51.166;4.760;2024-03-08T12:13:35;7.10;99.90
27384;DHT22;14851;51.166;4.760;2024-03-08T12:16:21;7.20;99.90
27384;DHT22;14851;51.166;4.760;2024-03-08T12:18:51;7.30;99.90
27384;DHT22;14851;51.166;4.760;2024-03-08T12:21:22;7.40;99.90
27384;DHT22;14851;51.166;4.760;2024-03-08T12:24:08;7.40;99.90
27384;DHT22;14851;51.166;4.760;2024-03-08T12:26:46;7.50;99.90
27384;DHT22;14851;51.166;4.760;2024-03-08T12:29:28;7.50;99.90
27384;DHT22;14851;51.166;4.760;2024-03-08T12:32:11;7.50;99.90
27384;DHT22;14851;51.166;4.760;2024-03-08T12:34:40;7.60;99.90
27384;DHT22;14851;51.166;4.760;2024-03-08T12:37:10;7.60;99.90
27384;DHT22;14851;51.166;4.760;2024-03-08T12:40:00;7.60;99.90
27384;DHT22;14851;51.166;4.760;2024-03-08T12:42:30;7.70;99.90
27384;DHT22;14851;51.166;4.760;2024-03-08T12:45:09;7.80;99.90
27384;DHT22;14851;51.166;4.760;2024-03-08T12:48:03;7.80;99.90
27384;DHT22;14851;51.166;4.760;2024-03-08T12:50:43;7.80;99.90
27384;DHT22;14851;51.166;4.760;2024-03-08T12:53:17;7.90;99.90
27384;DHT22;14851;51.166;4.760;2024-03-08T12:56:08;8.00;99.90
27384;DHT22;14851;51.166;4.760;2024-03-08T12:58:43;8.00;99.90
27384;DHT22;14851;51.166;4.760;2024-03-08T13:01:58;8.10;99.90
27384;DHT22;14851;51.166;4.760;2024-03-08T13:05:27;8.20;99.90
27384;DHT22;14851;51.166;4.760;2024-03-08T13:08:01;8.20;99.90
27384;DHT22;14851;51.166;4.760;2024-03-08T13:10:48;8.20;99.90
27384;DHT22;14851;51.166;4.760;2024-03-08T13:13:20;8.30;99.90
27384;DHT22;14851;51.166;4.760;2024-03-08T13:16:00;8.30;99.90
27384;DHT22;14851;51.166;4.760;2024-03-08T13:19:27;8.40;99.90
27384;DHT22;14851;51.166;4.760;2024-03-08T13:37:43;8.60;99.90
27384;DHT22;14851;51.166;4.760;2024-03-08T13:40:17;8.70;99.90
27384;DHT22;14851;51.166;4.760;2024-03-08T13:43:06;8.70;99.90
27384;DHT22;14851;51.166;4.760;2024-03-08T13:45:36;8.80;99.90
27384;DHT22;14851;51.166;4.760;2024-03-08T13:48:08;8.90;99.90
27384;DHT22;14851;51.166;4.760;2024-03-08T13:50:38;8.90;99.90
27384;DHT22;14851;51.166;4.760;2024-03-08T13:53:05;8.80;99.90
27384;DHT22;14851;51.166;4.760;2024-03-08T13:55:34;8.90;99.90
27384;DHT22;14851;51.166;4.760;2024-03-08T13:58:01;8.90;99.90
27384;DHT22;14851;51.166;4.760;2024-03-08T14:00:28;8.90;99.90
27384;DHT22;14851;51.166;4.760;2024-03-08T14:02:59;9.00;99.90
27384;DHT22;14851;51.166;4.760;2024-03-08T14:05:26;9.10;99.90
27384;DHT22;14851;51.166;4.760;2024-03-08T14:07:55;9.00;99.90
27384;DHT22;14851;51.166;4.760;2024-03-08T14:10:21;9.10;99.90
27384;DHT22;14851;51.166;4.760;2024-03-08T14:12:49;9.20;99.90
27384;DHT22;14851;51.166;4.760;2024-03-08T14:15:16;9.20;99.90
27384;DHT22;14851;51.166;4.760;2024-03-08T14:17:42;9.20;99.90
27384;DHT22;14851;51.166;4.760;2024-03-08T14:20:11;9.30;99.90
27384;DHT22;14851;51.166;4.760;2024-03-08T14:22:39;9.40;99.90
27384;DHT22;14851;51.166;4.760;2024-03-08T14:25:05;9.40;99.90
27384;DHT22;14851;51.166;4.760;2024-03-08T14:27:32;9.40;99.90
27384;DHT22;14851;51.166;4.760;2024-03-08T14:29:59;9.40;99.90
27384;DHT22;14851;51.166;4.760;2024-03-08T14:32:25;9.40;99.90
27384;DHT22;14851;51.166;4.760;2024-03-08T14:34:52;9.50;99.90
27384;DHT22;14851;51.166;4.760;2024-03-08T14:37:18;9.40;99.90
27384;DHT22;14851;51.166;4.760;2024-03-08T14:39:49;9.50;99.90
27384;DHT22;14851;51.166;4.760;2024-03-08T14:42:18;9.50;99.90
27384;DHT22;14851;51.166;4.760;2024-03-08T14:44:45;9.50;99.90
27384;DHT22;14851;51.166;4.760;2024-03-08T14:47:16;9.60;99.90
27384;DHT22;14851;51.166;4.760;2024-03-08T14:49:43;9.60;99.90
27384;DHT22;14851;51.166;4.760;2024-03-08T14:52:09;9.70;99.90
27384;DHT22;14851;51.166;4.760;2024-03-08T14:54:55;9.70;99.90
27384;DHT22;14851;51.166;4.760;2024-03-08T14:57:22;9.70;99.90
27384;DHT22;14851;51.166;4.760;2024-03-08T14:59:51;9.70;99.90
27384;DHT22;14851;51.166;4.760;2024-03-08T15:02:17;9.70;99.90
27384;DHT22;14851;51.166;4.760;2024-03-08T15:04:47;9.80;99.90
27384;DHT22;14851;51.166;4.760;2024-03-08T15:07:25;9.80;99.90
27384;DHT22;14851;51.166;4.760;2024-03-08T15:09:51;9.80;99.90
27384;DHT22;14851;51.166;4.760;2024-03-08T15:12:18;9.80;99.90
27384;DHT22;14851;51.166;4.760;2024-03-08T15:14:45;9.90;99.90
27384;DHT22;14851;51.166;4.760;2024-03-08T15:17:12;9.80;99.90
27384;DHT22;14851;51.166;4.760;2024-03-08T15:19:48;9.90;99.90
27384;DHT22;14851;51.166;4.760;2024-03-08T15:22:14;9.90;99.90
27384;DHT22;14851;51.166;4.760;2024-03-08T15:24:46;9.90;99.90
27384;DHT22;14851;51.166;4.760;2024-03-08T15:27:18;9.90;99.90
27384;DHT22;14851;51.166;4.760;2024-03-08T15:29:55;9.90;99.90
27384;DHT22;14851;51.166;4.760;2024-03-08T15:32:21;10.00;99.90
27384;DHT22;14851;51.166;4.760;2024-03-08T15:34:49;10.00;99.90
27384;DHT22;14851;51.166;4.760;2024-03-08T15:37:15;10.00;99.90
27384;DHT22;14851;51.166;4.760;2024-03-08T15:39:44;10.10;99.90
27384;DHT22;14851;51.166;4.760;2024-03-08T15:42:10;10.00;99.90
27384;DHT22;14851;51.166;4.760;2024-03-08T15:44:46;10.00;99.90
27384;DHT22;14851;51.166;4.760;2024-03-08T15:47:12;10.00;99.90
27384;DHT22;14851;51.166;4.760;2024-03-08T15:49:42;10.00;99.90
27384;DHT22;14851;51.166;4.760;2024-03-08T15:52:12;10.10;99.90
27384;DHT22;14851;51.166;4.760;2024-03-08T15:54:39;10.10;99.90
27384;DHT22;14851;51.166;4.760;2024-03-08T15:57:07;10.10;99.90
27384;DHT22;14851;51.166;4.760;2024-03-08T15:59:36;10.10;99.90
27384;DHT22;14851;51.166;4.760;2024-03-08T16:02:03;10.10;99.90
27384;DHT22;14851;51.166;4.760;2024-03-08T16:04:29;10.20;99.90
27384;DHT22;14851;51.166;4.760;2024-03-08T16:07:05;10.20;99.90
27384;DHT22;14851;51.166;4.760;2024-03-08T16:09:32;10.20;99.90
27384;DHT22;14851;51.166;4.760;2024-03-08T16:12:16;10.20;99.90
27384;DHT22;14851;51.166;4.760;2024-03-08T16:14:48;10.20;99.90
27384;DHT22;14851;51.166;4.760;2024-03-08T16:17:30;10.20;99.90
27384;DHT22;14851;51.166;4.760;2024-03-08T16:20:20;10.20;99.90
27384;DHT22;14851;51.166;4.760;2024-03-08T16:23:23;10.20;99.90
27384;DHT22;14851;51.166;4.760;2024-03-08T16:26:31;10.20;99.90
27384;DHT22;14851;51.166;4.760;2024-03-08T16:32:15;10.20;99.90
27384;DHT22;14851;51.166;4.760;2024-03-08T16:37:51;10.40;99.90
27384;DHT22;14851;51.166;4.760;2024-03-08T16:40:29;10.30;99.90